Time;durP1;ratioP1;P1;durP2;ratioP2;P2;SDS_P1;SDS_P2;PMS_P1;PMS_P2;Temp;Humidity;BMP_temperature;BMP_pressure;BME280_temperature;BME280_humidity;BME280_pressure;Samples;Min_cycle;Max_cycle;Signal;HPM_P1;HPM_P2
2023/04/19 00:00:49;;;;;;;5.53;4.65;;;;;;;;;;10084336;28;20045;-62
2023/04/19 00:05:43;;;;;;;4.65;3.90;;;;;;;;;;10098068;28;20102;-62
2023/04/19 00:10:38;;;;;;;6.57;4.18;;;;;;;;;;10089628;28;20053;-64
2023/04/19 00:15:33;;;;;;;4.30;3.90;;;;;;;;;;10054592;28;20412;-62
2023/04/19 00:20:26;;;;;;;5.40;4.10;;;;;;;;;;10072438;28;20049;-62
2023/04/19 00:25:20;;;;;;;6.15;4.18;;;;;;;;;;10073693;28;20493;-61
2023/04/19 00:30:14;;;;;;;4.65;4.15;;;;;;;;;;10092897;28;20539;-62
2023/04/19 00:35:09;;;;;;;4.53;3.95;;;;;;;;;;10087218;28;20053;-62
2023/04/19 00:40:03;;;;;;;4.72;4.10;;;;;;;;;;10059630;28;20081;-62
2023/04/19 00:44:57;;;;;;;4.75;4.03;;;;;;;;;;10070328;28;20678;-62
2023/04/19 00:49:50;;;;;;;5.13;4.03;;;;;;;;;;10105643;28;20056;-62
2023/04/19 00:54:43;;;;;;;5.15;3.60;;;;;;;;;;10101623;28;20505;-62
2023/04/19 00:59:39;;;;;;;4.10;3.70;;;;;;;;;;10103275;28;20090;-62
2023/04/19 01:04:32;;;;;;;5.07;3.45;;;;;;;;;;10117015;28;20072;-62
2023/04/19 01:09:25;;;;;;;4.35;3.60;;;;;;;;;;10099046;28;20080;-62
2023/04/19 01:14:18;;;;;;;6.85;3.60;;;;;;;;;;10092044;28;20049;-62
2023/04/19 01:19:11;;;;;;;5.35;3.58;;;;;;;;;;10113757;28;20211;-62
2023/04/19 01:24:05;;;;;;;4.35;3.35;;;;;;;;;;10121037;28;20110;-62
2023/04/19 01:28:59;;;;;;;3.40;2.78;;;;;;;;;;10142147;28;20472;-62
2023/04/19 01:33:53;;;;;;;4.88;3.30;;;;;;;;;;10126545;28;20502;-62
2023/04/19 01:38:46;;;;;;;5.53;4.03;;;;;;;;;;10099570;28;20506;-62
2023/04/19 01:43:40;;;;;;;3.55;3.25;;;;;;;;;;10107124;28;20492;-62
2023/04/19 01:48:34;;;;;;;5.18;3.60;;;;;;;;;;10099880;28;20065;-62
2023/04/19 01:53:27;;;;;;;4.93;3.60;;;;;;;;;;10117135;28;20041;-62
2023/04/19 01:58:20;;;;;;;4.38;3.72;;;;;;;;;;10100360;28;20067;-62
2023/04/19 02:03:13;;;;;;;4.28;2.95;;;;;;;;;;10084440;28;20049;-62
2023/04/19 02:08:07;;;;;;;4.63;3.65;;;;;;;;;;10119810;28;20058;-62
2023/04/19 02:13:01;;;;;;;4.50;3.67;;;;;;;;;;10128824;28;20053;-62
2023/04/19 02:17:54;;;;;;;4.18;3.20;;;;;;;;;;10119781;28;20044;-62
2023/04/19 02:22:48;;;;;;;3.92;3.53;;;;;;;;;;10144517;28;20120;-62
2023/04/19 02:27:41;;;;;;;4.45;3.85;;;;;;;;;;10089340;28;20056;-62
2023/04/19 02:32:34;;;;;;;4.50;3.30;;;;;;;;;;10113169;28;20045;-61
2023/04/19 02:37:31;;;;;;;3.90;3.42;;;;;;;;;;10112047;28;20115;-62
2023/04/19 02:42:24;;;;;;;3.63;3.25;;;;;;;;;;10108888;28;20045;-62
2023/04/19 02:47:18;;;;;;;4.78;3.88;;;;;;;;;;10125265;28;20060;-62
2023/04/19 02:52:12;;;;;;;5.57;3.88;;;;;;;;;;10122066;28;20052;-62
2023/04/19 02:57:06;;;;;;;6.35;3.70;;;;;;;;;;10121213;28;20103;-62
2023/04/19 03:02:00;;;;;;;5.38;3.00;;;;;;;;;;10110406;28;20094;-62
2023/04/19 03:06:53;;;;;;;5.35;4.10;;;;;;;;;;10118131;28;20056;-62
2023/04/19 03:11:47;;;;;;;4.05;3.58;;;;;;;;;;10100032;28;20056;-62
2023/04/19 03:16:42;;;;;;;3.88;3.33;;;;;;;;;;10097839;28;20485;-62
2023/04/19 03:21:36;;;;;;;6.82;3.63;;;;;;;;;;10105739;28;20052;-62
2023/04/19 03:26:30;;;;;;;4.65;4.05;;;;;;;;;;10105434;28;20053;-62
2023/04/19 03:31:25;;;;;;;3.97;3.58;;;;;;;;;;10105743;28;20152;-63
2023/04/19 03:36:19;;;;;;;9.13;4.45;;;;;;;;;;10115129;28;20495;-62
2023/04/19 03:41:20;;;;;;;10.18;3.97;;;;;;;;;;10120077;28;20048;-63
2023/04/19 03:46:20;;;;;;;6.53;4.25;;;;;;;;;;10129894;28;20490;-63
2023/04/19 03:51:15;;;;;;;6.60;4.72;;;;;;;;;;10133776;28;20078;-63
2023/04/19 03:56:09;;;;;;;6.85;5.05;;;;;;;;;;10105644;28;20155;-63
2023/04/19 04:01:02;;;;;;;6.43;4.88;;;;;;;;;;10115067;28;20076;-63
2023/04/19 04:05:56;;;;;;;5.55;4.35;;;;;;;;;;10101392;28;20454;-63
2023/04/19 04:10:50;;;;;;;7.22;4.75;;;;;;;;;;10107986;28;20049;-63
2023/04/19 04:15:44;;;;;;;8.30;5.25;;;;;;;;;;10123110;28;20059;-63
2023/04/19 04:20:38;;;;;;;8.13;5.30;;;;;;;;;;10119442;28;20052;-63
2023/04/19 04:25:36;;;;;;;7.15;5.15;;;;;;;;;;10108928;28;20049;-64
2023/04/19 04:30:34;;;;;;;9.77;6.57;;;;;;;;;;10124469;28;20487;-63
2023/04/19 04:35:29;;;;;;;9.70;6.50;;;;;;;;;;10123290;28;20385;-64
2023/04/19 04:40:32;;;;;;;7.65;6.68;;;;;;;;;;10110285;28;20078;-63
2023/04/19 04:45:25;;;;;;;10.00;6.85;;;;;;;;;;10132924;28;20124;-64
2023/04/19 04:50:19;;;;;;;9.57;6.35;;;;;;;;;;10129563;28;20056;-63
2023/04/19 04:55:14;;;;;;;8.63;6.65;;;;;;;;;;10125557;28;20051;-63
2023/04/19 05:00:11;;;;;;;8.52;7.22;;;;;;;;;;10115497;28;20128;-63
2023/04/19 05:05:15;;;;;;;10.82;7.70;;;;;;;;;;10101670;28;20048;-64
2023/04/19 05:10:10;;;;;;;8.45;7.45;;;;;;;;;;10105858;28;20480;-63
2023/04/19 05:15:10;;;;;;;8.93;8.02;;;;;;;;;;10109411;28;20406;-64
2023/04/19 05:20:11;;;;;;;8.63;7.53;;;;;;;;;;10121147;28;20045;-64
2023/04/19 05:25:09;;;;;;;8.07;7.28;;;;;;;;;;10099842;28;20045;-64
2023/04/19 05:30:06;;;;;;;11.13;7.25;;;;;;;;;;10094838;28;20516;-65
2023/04/19 05:35:06;;;;;;;8.68;7.78;;;;;;;;;;10096834;28;20049;-65
2023/04/19 05:40:00;;;;;;;8.63;6.47;;;;;;;;;;10129721;28;20363;-65
2023/04/19 05:44:55;;;;;;;8.85;7.28;;;;;;;;;;10114755;28;20554;-64
2023/04/19 05:49:48;;;;;;;13.93;7.35;;;;;;;;;;10106903;28;20056;-64
2023/04/19 05:54:46;;;;;;;17.45;8.57;;;;;;;;;;10115908;28;20167;-65
2023/04/19 05:59:39;;;;;;;50.05;11.07;;;;;;;;;;10116916;28;20121;-64
2023/04/19 06:04:33;;;;;;;15.60;9.90;;;;;;;;;;10099786;28;20057;-65
2023/04/19 06:09:27;;;;;;;22.00;9.80;;;;;;;;;;10124423;28;20053;-65
2023/04/19 06:14:21;;;;;;;19.17;9.40;;;;;;;;;;10101433;28;20045;-64
2023/04/19 06:19:15;;;;;;;11.85;8.50;;;;;;;;;;10124619;28;20496;-64
2023/04/19 06:24:08;;;;;;;21.23;9.40;;;;;;;;;;10119528;28;20477;-64
2023/04/19 06:29:01;;;;;;;13.50;9.82;;;;;;;;;;10108702;28;20475;-64
2023/04/19 06:33:54;;;;;;;16.08;9.88;;;;;;;;;;10135140;28;20420;-63
2023/04/19 06:38:49;;;;;;;20.52;10.25;;;;;;;;;;10123144;28;20140;-63
2023/04/19 06:43:43;;;;;;;23.10;10.75;;;;;;;;;;10123911;28;20086;-64
2023/04/19 06:48:37;;;;;;;19.92;10.70;;;;;;;;;;10138866;28;20048;-64
2023/04/19 06:53:30;;;;;;;14.63;9.23;;;;;;;;;;10128612;28;20586;-64
2023/04/19 06:58:23;;;;;;;15.32;9.98;;;;;;;;;;10143537;28;20095;-64
2023/04/19 07:03:17;;;;;;;18.05;11.70;;;;;;;;;;10129175;28;20487;-64
2023/04/19 07:08:11;;;;;;;19.17;10.75;;;;;;;;;;10115413;28;20075;-64
2023/04/19 07:13:04;;;;;;;14.98;10.95;;;;;;;;;;10137938;28;20056;-64
2023/04/19 07:17:58;;;;;;;11.93;10.60;;;;;;;;;;10127789;28;20135;-64
2023/04/19 07:22:53;;;;;;;14.93;11.85;;;;;;;;;;10141605;28;20033;-63
2023/04/19 07:27:48;;;;;;;17.35;10.45;;;;;;;;;;10112167;28;20059;-63
2023/04/19 07:32:45;;;;;;;11.60;9.27;;;;;;;;;;10110998;28;20060;-64
2023/04/19 07:37:39;;;;;;;13.35;9.30;;;;;;;;;;10124351;28;20133;-64
2023/04/19 07:42:32;;;;;;;12.38;8.38;;;;;;;;;;10118048;28;20041;-63
2023/04/19 07:47:25;;;;;;;9.95;7.75;;;;;;;;;;10123400;28;20065;-64
2023/04/19 07:52:19;;;;;;;13.27;8.10;;;;;;;;;;10109673;28;20175;-64
2023/04/19 07:57:13;;;;;;;8.68;6.40;;;;;;;;;;10105996;28;20079;-65
2023/04/19 08:02:06;;;;;;;6.70;5.82;;;;;;;;;;10113937;28;20110;-62
2023/04/19 08:07:02;;;;;;;6.18;4.80;;;;;;;;;;10119674;28;20073;-62
2023/04/19 08:11:57;;;;;;;6.07;5.25;;;;;;;;;;10124051;28;20064;-63
2023/04/19 08:16:50;;;;;;;7.93;4.22;;;;;;;;;;10124171;28;20059;-64
2023/04/19 08:22:05;;;;;;;8.68;4.95;;;;;;;;;;10053857;28;20056;-67
2023/04/19 08:26:58;;;;;;;8.52;5.65;;;;;;;;;;10038924;28;20184;-67
2023/04/19 08:31:52;;;;;;;6.75;5.32;;;;;;;;;;10046091;28;20054;-67
2023/04/19 08:36:46;;;;;;;12.68;5.07;;;;;;;;;;10049664;28;20401;-66
2023/04/19 08:41:58;;;;;;;6.18;4.95;;;;;;;;;;10051814;28;20146;-67
2023/04/19 08:47:00;;;;;;;17.10;5.13;;;;;;;;;;10116287;28;20064;-67
2023/04/19 08:51:54;;;;;;;8.13;4.38;;;;;;;;;;10125216;28;20110;-67
2023/04/19 08:56:48;;;;;;;7.13;3.40;;;;;;;;;;10109419;28;20057;-67
2023/04/19 09:01:41;;;;;;;7.85;3.40;;;;;;;;;;10130246;28;20423;-67
2023/04/19 09:06:55;;;;;;;6.72;3.28;;;;;;;;;;10137552;28;20045;-67
2023/04/19 09:11:49;;;;;;;4.40;2.90;;;;;;;;;;10124662;28;20539;-67
2023/04/19 09:16:42;;;;;;;5.07;2.92;;;;;;;;;;10138380;28;20032;-67
2023/04/19 09:21:35;;;;;;;5.10;2.70;;;;;;;;;;10141484;28;20074;-67
2023/04/19 09:26:29;;;;;;;2.13;1.73;;;;;;;;;;10132699;28;20052;-66
2023/04/19 09:31:23;;;;;;;10.98;4.05;;;;;;;;;;10137774;28;20131;-67
2023/04/19 09:36:29;;;;;;;2.92;2.22;;;;;;;;;;10135457;28;20098;-67
2023/04/19 09:41:24;;;;;;;3.38;2.25;;;;;;;;;;10121639;28;20074;-66
2023/04/19 09:46:30;;;;;;;6.20;2.50;;;;;;;;;;10144576;28;20479;-66
2023/04/19 09:51:39;;;;;;;9.83;1.60;;;;;;;;;;10130288;28;20060;-67
2023/04/19 09:56:33;;;;;;;1.50;1.40;;;;;;;;;;10143240;28;20045;-64
2023/04/19 10:01:27;;;;;;;7.30;2.40;;;;;;;;;;10125631;28;20044;-64
2023/04/19 10:06:20;;;;;;;6.57;3.05;;;;;;;;;;10133153;28;20047;-64
2023/04/19 10:11:18;;;;;;;2.15;1.95;;;;;;;;;;10120232;28;20049;-65
2023/04/19 10:16:12;;;;;;;4.07;2.53;;;;;;;;;;10136718;28;20054;-64
2023/04/19 10:21:12;;;;;;;2.45;2.08;;;;;;;;;;10137870;28;20129;-64
2023/04/19 10:26:06;;;;;;;3.55;2.70;;;;;;;;;;10142809;28;20044;-64
2023/04/19 10:31:02;;;;;;;3.78;3.30;;;;;;;;;;10141672;28;20062;-64
2023/04/19 10:35:57;;;;;;;4.27;2.47;;;;;;;;;;10138265;28;20040;-64
2023/04/19 10:40:50;;;;;;;2.42;2.22;;;;;;;;;;10130442;28;20045;-65
2023/04/19 10:45:44;;;;;;;4.55;2.80;;;;;;;;;;10131929;28;20503;-64
2023/04/19 10:51:01;;;;;;;3.28;2.97;;;;;;;;;;10144509;28;20063;-65
2023/04/19 10:55:55;;;;;;;2.72;2.45;;;;;;;;;;10122967;28;20061;-64
2023/04/19 11:00:49;;;;;;;2.72;2.53;;;;;;;;;;10116314;28;20052;-64
2023/04/19 11:06:15;;;;;;;4.68;2.65;;;;;;;;;;10122700;28;20488;-65
2023/04/19 11:11:10;;;;;;;2.67;2.38;;;;;;;;;;10138508;28;20044;-65
2023/04/19 11:16:10;;;;;;;3.55;2.65;;;;;;;;;;10125402;28;20072;-66
2023/04/19 11:21:04;;;;;;;3.38;2.50;;;;;;;;;;10131436;28;20455;-65
2023/04/19 11:25:58;;;;;;;4.13;2.97;;;;;;;;;;10127759;28;20044;-65
2023/04/19 11:30:53;;;;;;;4.07;3.10;;;;;;;;;;10116603;28;20059;-65
2023/04/19 11:35:46;;;;;;;3.38;2.88;;;;;;;;;;10114271;28;20041;-63
2023/04/19 11:40:40;;;;;;;5.28;3.10;;;;;;;;;;10134467;28;20448;-63
2023/04/19 11:45:35;;;;;;;3.38;3.08;;;;;;;;;;10121399;28;20045;-63
2023/04/19 11:50:36;;;;;;;3.15;2.25;;;;;;;;;;10134209;28;20055;-63
2023/04/19 11:55:32;;;;;;;4.45;3.05;;;;;;;;;;10131140;28;20045;-64
2023/04/19 12:00:30;;;;;;;5.22;3.78;;;;;;;;;;10140848;28;20067;-65
2023/04/19 12:05:24;;;;;;;4.50;3.38;;;;;;;;;;10135908;28;20028;-65
2023/04/19 12:10:20;;;;;;;13.82;4.22;;;;;;;;;;10133577;28;20495;-64
2023/04/19 12:15:13;;;;;;;4.53;2.88;;;;;;;;;;10128813;28;20083;-64
2023/04/19 12:20:09;;;;;;;5.32;3.47;;;;;;;;;;10128758;28;20044;-65
2023/04/19 12:25:04;;;;;;;4.18;3.78;;;;;;;;;;10149002;28;20052;-65
2023/04/19 12:29:58;;;;;;;4.50;4.10;;;;;;;;;;10148416;28;20114;-65
2023/04/19 12:34:52;;;;;;;4.35;3.00;;;;;;;;;;10144476;28;20048;-65
2023/04/19 12:39:46;;;;;;;10.55;3.67;;;;;;;;;;10129972;28;20080;-66
2023/04/19 12:44:41;;;;;;;3.30;2.90;;;;;;;;;;10111087;28;20558;-63
2023/04/19 12:49:35;;;;;;;7.35;2.70;;;;;;;;;;10147434;28;20060;-62
2023/04/19 12:54:28;;;;;;;3.90;3.08;;;;;;;;;;10132705;28;20044;-65
2023/04/19 12:59:22;;;;;;;4.53;3.35;;;;;;;;;;10121203;28;20471;-63
2023/04/19 13:04:15;;;;;;;6.15;3.75;;;;;;;;;;10122524;28;20051;-65
2023/04/19 13:09:09;;;;;;;4.13;3.72;;;;;;;;;;10114097;28;20037;-64
2023/04/19 13:14:07;;;;;;;4.60;3.08;;;;;;;;;;10127055;28;20052;-64
2023/04/19 13:19:01;;;;;;;5.28;3.22;;;;;;;;;;10135099;28;20058;-64
2023/04/19 13:23:56;;;;;;;4.72;4.28;;;;;;;;;;10141581;28;20466;-65
2023/04/19 13:28:50;;;;;;;9.93;3.63;;;;;;;;;;10122591;28;20463;-64
2023/04/19 13:33:43;;;;;;;3.55;3.00;;;;;;;;;;10136990;28;20066;-64
2023/04/19 13:38:38;;;;;;;4.57;3.22;;;;;;;;;;10143193;28;20056;-64
2023/04/19 13:43:30;;;;;;;4.10;3.67;;;;;;;;;;10135958;28;20058;-64
2023/04/19 13:48:27;;;;;;;5.80;3.75;;;;;;;;;;10138996;28;20053;-64
2023/04/19 13:53:20;;;;;;;;;;;;;;;;;;10146146;28;20072;-64
2023/04/19 13:58:16;;;;;;;7.47;2.97;;;;;;;;;;10144219;28;19928;-64
2023/04/19 14:03:09;;;;;;;4.53;2.45;;;;;;;;;;10129305;28;20403;-64
2023/04/19 14:08:04;;;;;;;3.42;2.42;;;;;;;;;;10132555;28;20040;-64
2023/04/19 14:12:58;;;;;;;4.53;2.67;;;;;;;;;;10145299;28;20110;-65
2023/04/19 14:17:52;;;;;;;6.10;3.22;;;;;;;;;;10138840;28;20472;-64
2023/04/19 14:22:46;;;;;;;6.20;3.13;;;;;;;;;;10130663;28;20048;-64
2023/04/19 14:27:39;;;;;;;6.63;2.60;;;;;;;;;;10105286;28;20135;-64
2023/04/19 14:32:32;;;;;;;5.32;2.75;;;;;;;;;;10126588;28;20044;-64
2023/04/19 14:37:25;;;;;;;8.60;2.55;;;;;;;;;;10138283;28;20053;-64
2023/04/19 14:42:20;;;;;;;3.35;2.55;;;;;;;;;;10127380;28;20063;-64
2023/04/19 14:47:15;;;;;;;2.30;2.10;;;;;;;;;;10126082;28;20057;-64
2023/04/19 14:52:08;;;;;;;7.88;3.17;;;;;;;;;;10127727;28;20505;-64
2023/04/19 14:57:01;;;;;;;3.60;3.03;;;;;;;;;;10140039;28;20416;-64
2023/04/19 15:01:55;;;;;;;4.93;2.65;;;;;;;;;;10129179;28;20215;-64
2023/04/19 15:06:49;;;;;;;6.22;2.40;;;;;;;;;;10121874;28;20072;-63
2023/04/19 15:11:44;;;;;;;3.75;3.10;;;;;;;;;;10125502;28;20446;-63
2023/04/19 15:16:38;;;;;;;3.22;2.90;;;;;;;;;;10128957;28;20061;-64
2023/04/19 15:21:32;;;;;;;3.78;3.20;;;;;;;;;;10120307;28;20087;-64
2023/04/19 15:26:26;;;;;;;5.55;2.40;;;;;;;;;;10120863;28;20201;-64
2023/04/19 15:31:19;;;;;;;3.35;2.33;;;;;;;;;;10120470;28;20095;-64
2023/04/19 15:36:13;;;;;;;3.45;2.65;;;;;;;;;;10129143;28;20095;-63
2023/04/19 15:41:05;;;;;;;4.70;2.15;;;;;;;;;;10118817;28;20070;-64
2023/04/19 15:45:59;;;;;;;3.53;2.30;;;;;;;;;;10134033;28;20138;-66
2023/04/19 15:50:53;;;;;;;3.40;1.88;;;;;;;;;;10141164;28;20418;-67
2023/04/19 15:55:47;;;;;;;3.10;2.60;;;;;;;;;;10130858;28;20047;-65
2023/04/19 16:00:40;;;;;;;7.68;2.47;;;;;;;;;;10142986;28;20443;-65
2023/04/19 16:05:35;;;;;;;5.60;2.83;;;;;;;;;;10138752;28;20081;-65
2023/04/19 16:10:29;;;;;;;1.40;1.25;;;;;;;;;;10120063;28;20485;-65
2023/04/19 16:15:22;;;;;;;3.47;1.17;;;;;;;;;;10126061;28;20095;-65
2023/04/19 16:20:15;;;;;;;1.65;1.42;;;;;;;;;;10121388;28;20098;-65
2023/04/19 16:25:11;;;;;;;1.95;1.60;;;;;;;;;;10133891;28;20056;-65
2023/04/19 16:30:06;;;;;;;8.45;3.08;;;;;;;;;;10124532;28;20124;-65
2023/04/19 16:35:00;;;;;;;11.15;3.85;;;;;;;;;;10126219;28;20048;-65
2023/04/19 16:39:54;;;;;;;2.80;2.55;;;;;;;;;;10139908;28;20495;-66
2023/04/19 16:44:48;;;;;;;3.90;2.58;;;;;;;;;;10124871;28;20457;-64
2023/04/19 16:49:42;;;;;;;3.72;2.78;;;;;;;;;;10079765;28;20054;-64
2023/04/19 16:54:36;;;;;;;6.20;4.43;;;;;;;;;;10072608;28;20091;-64
2023/04/19 16:59:30;;;;;;;23.15;12.48;;;;;;;;;;10079369;28;20183;-64
2023/04/19 17:04:23;;;;;;;4.43;2.35;;;;;;;;;;10073753;28;20072;-64
2023/04/19 17:09:18;;;;;;;7.20;5.55;;;;;;;;;;10084146;28;20041;-65
2023/04/19 17:14:10;;;;;;;3.67;2.00;;;;;;;;;;10071233;28;20411;-65
2023/04/19 17:19:03;;;;;;;2.33;2.10;;;;;;;;;;10072413;28;20046;-64
2023/04/19 17:23:56;;;;;;;4.72;2.35;;;;;;;;;;10083094;28;20079;-64
2023/04/19 17:28:49;;;;;;;3.92;1.60;;;;;;;;;;10091304;28;20053;-63
2023/04/19 17:33:45;;;;;;;4.45;2.47;;;;;;;;;;10087510;28;20083;-64
2023/04/19 17:38:38;;;;;;;7.53;2.75;;;;;;;;;;10092583;28;20051;-65
2023/04/19 17:43:31;;;;;;;10.43;9.32;;;;;;;;;;10075491;28;20451;-65
2023/04/19 17:48:24;;;;;;;9.27;6.78;;;;;;;;;;10080205;28;20136;-66
2023/04/19 17:53:18;;;;;;;10.25;7.05;;;;;;;;;;10088659;28;20041;-62
2023/04/19 17:58:12;;;;;;;1.92;1.70;;;;;;;;;;10085884;28;20128;-64
2023/04/19 18:03:09;;;;;;;2.63;2.42;;;;;;;;;;10093003;28;20428;-64
2023/04/19 18:08:03;;;;;;;3.80;3.40;;;;;;;;;;10059843;28;20045;-64
2023/04/19 18:12:56;;;;;;;2.75;2.45;;;;;;;;;;10078986;28;20458;-64
2023/04/19 18:17:50;;;;;;;2.38;2.17;;;;;;;;;;10087545;28;20045;-65
2023/04/19 18:22:44;;;;;;;5.40;3.15;;;;;;;;;;10088911;28;20049;-70
2023/04/19 18:27:37;;;;;;;4.63;2.92;;;;;;;;;;10072194;28;20053;-71
2023/04/19 18:32:31;;;;;;;5.22;4.70;;;;;;;;;;10069333;28;20057;-71
2023/04/19 18:37:25;;;;;;;2.30;1.67;;;;;;;;;;10054955;28;20037;-70
2023/04/19 18:42:18;;;;;;;2.50;2.28;;;;;;;;;;10084608;28;20102;-69
2023/04/19 18:47:11;;;;;;;3.85;2.22;;;;;;;;;;10082863;28;20735;-70
2023/04/19 18:52:04;;;;;;;8.10;2.25;;;;;;;;;;10071281;28;20049;-71
2023/04/19 18:56:57;;;;;;;7.38;2.65;;;;;;;;;;10096785;28;20385;-70
2023/04/19 19:02:11;;;;;;;2.58;2.28;;;;;;;;;;10098130;28;20071;-70
2023/04/19 19:07:05;;;;;;;4.80;3.83;;;;;;;;;;10082539;28;20132;-70
2023/04/19 19:12:19;;;;;;;5.30;3.70;;;;;;;;;;10080308;28;20064;-71
2023/04/19 19:17:12;;;;;;;6.05;3.70;;;;;;;;;;10085828;28;20524;-68
2023/04/19 19:22:07;;;;;;;9.23;5.70;;;;;;;;;;10079752;28;20500;-67
2023/04/19 19:27:19;;;;;;;3.90;3.08;;;;;;;;;;10098289;28;20041;-64
2023/04/19 19:32:13;;;;;;;5.03;2.92;;;;;;;;;;10105090;28;20094;-66
2023/04/19 19:37:07;;;;;;;4.60;3.63;;;;;;;;;;10111059;28;20053;-65
2023/04/19 19:42:01;;;;;;;3.83;3.42;;;;;;;;;;10097440;28;20045;-65
2023/04/19 19:46:58;;;;;;;4.55;3.92;;;;;;;;;;10099053;28;20128;-66
2023/04/19 19:51:51;;;;;;;7.72;4.32;;;;;;;;;;10135161;28;20044;-70
2023/04/19 19:56:50;;;;;;;4.07;3.70;;;;;;;;;;10146717;28;20048;-71
2023/04/19 20:02:04;;;;;;;3.58;3.10;;;;;;;;;;10021314;28;20093;-74
2023/04/19 20:06:58;;;;;;;5.55;5.03;;;;;;;;;;10020571;28;20153;-68
2023/04/19 20:11:54;;;;;;;5.82;4.15;;;;;;;;;;10015198;28;20089;-71
2023/04/19 20:16:47;;;;;;;4.85;4.35;;;;;;;;;;10029266;28;20077;-70
2023/04/19 20:21:42;;;;;;;5.95;3.92;;;;;;;;;;10146387;28;20457;-68
2023/04/19 20:26:35;;;;;;;5.82;4.45;;;;;;;;;;10116342;28;20076;-69
2023/04/19 20:31:28;;;;;;;6.18;4.25;;;;;;;;;;10149299;28;20045;-68
2023/04/19 20:36:22;;;;;;;6.05;4.05;;;;;;;;;;10155232;28;20052;-68
2023/04/19 20:41:15;;;;;;;4.72;3.85;;;;;;;;;;10124006;28;20048;-69
2023/04/19 20:46:08;;;;;;;6.07;4.15;;;;;;;;;;10153839;28;20131;-69
2023/04/19 20:51:01;;;;;;;5.43;4.18;;;;;;;;;;10136614;28;20419;-69
2023/04/19 20:55:55;;;;;;;7.22;4.13;;;;;;;;;;10147830;28;20423;-71
2023/04/19 21:00:48;;;;;;;7.05;5.35;;;;;;;;;;10147843;28;20044;-71
2023/04/19 21:05:43;;;;;;;5.40;4.90;;;;;;;;;;10146341;28;20064;-70
2023/04/19 21:10:37;;;;;;;5.80;4.75;;;;;;;;;;10141612;28;20516;-69
2023/04/19 21:15:30;;;;;;;6.97;4.93;;;;;;;;;;10138134;28;20136;-70
2023/04/19 21:20:23;;;;;;;5.07;4.60;;;;;;;;;;10150394;28;20045;-69
2023/04/19 21:25:17;;;;;;;8.98;4.70;;;;;;;;;;10137064;28;20053;-70
2023/04/19 21:30:13;;;;;;;6.45;5.00;;;;;;;;;;10140506;28;20502;-72
2023/04/19 21:35:08;;;;;;;6.20;4.65;;;;;;;;;;10136805;28;20144;-71
2023/04/19 21:40:01;;;;;;;5.57;4.75;;;;;;;;;;10138329;28;20044;-71
2023/04/19 21:44:55;;;;;;;7.78;5.57;;;;;;;;;;10142549;28;20041;-69
2023/04/19 21:49:50;;;;;;;6.80;4.50;;;;;;;;;;10142360;28;20059;-69
2023/04/19 21:54:44;;;;;;;4.70;4.30;;;;;;;;;;10146434;28;20048;-69
2023/04/19 21:59:37;;;;;;;5.10;4.35;;;;;;;;;;10156850;28;20532;-69
2023/04/19 22:04:30;;;;;;;5.97;4.57;;;;;;;;;;10146984;28;20068;-69
2023/04/19 22:09:23;;;;;;;4.35;3.95;;;;;;;;;;10147589;28;20080;-69
2023/04/19 22:14:16;;;;;;;8.43;3.90;;;;;;;;;;10150220;28;20053;-69
2023/04/19 22:19:10;;;;;;;8.23;3.83;;;;;;;;;;10152149;28;20040;-68
2023/04/19 22:24:04;;;;;;;7.25;4.30;;;;;;;;;;10139968;28;20136;-69
2023/04/19 22:28:57;;;;;;;7.00;4.38;;;;;;;;;;10139897;28;20136;-68
2023/04/19 22:33:51;;;;;;;6.60;4.05;;;;;;;;;;10137956;28;20076;-69
2023/04/19 22:38:45;;;;;;;5.07;4.57;;;;;;;;;;10138464;28;20123;-69
2023/04/19 22:43:38;;;;;;;5.95;4.63;;;;;;;;;;10139645;28;20122;-69
2023/04/19 22:48:35;;;;;;;7.90;5.40;;;;;;;;;;10143156;28;20139;-69
2023/04/19 22:53:32;;;;;;;8.63;5.25;;;;;;;;;;10151415;28;20495;-69
2023/04/19 22:58:31;;;;;;;5.30;4.80;;;;;;;;;;10147810;28;20124;-68
2023/04/19 23:03:24;;;;;;;7.82;5.40;;;;;;;;;;10140185;28;20099;-68
2023/04/19 23:08:18;;;;;;;6.88;5.30;;;;;;;;;;10139203;28;20079;-69
2023/04/19 23:13:14;;;;;;;7.50;5.07;;;;;;;;;;10134234;28;20091;-68
2023/04/19 23:18:10;;;;;;;5.22;4.72;;;;;;;;;;10146255;28;20041;-68
2023/04/19 23:23:06;;;;;;;7.60;4.68;;;;;;;;;;10138383;28;20041;-69
2023/04/19 23:28:01;;;;;;;8.18;5.40;;;;;;;;;;10137308;28;20062;-68
2023/04/19 23:32:58;;;;;;;7.60;4.72;;;;;;;;;;10139968;28;20059;-68
2023/04/19 23:37:52;;;;;;;7.07;5.82;;;;;;;;;;10140271;28;20046;-69
2023/04/19 23:42:46;;;;;;;7.28;5.63;;;;;;;;;;10149962;28;20058;-68
2023/04/19 23:47:41;;;;;;;9.43;5.93;;;;;;;;;;10156963;28;20056;-69
2023/04/19 23:52:35;;;;;;;8.63;6.28;;;;;;;;;;10138076;28;20044;-68
2023/04/19 23:57:30;;;;;;;7.18;6.22;;;;;;;;;;10152046;28;20044;-68
